sensor_id;sensor_type;location;lat;lon;timestamp;P1;durP1;ratioP1;P2;durP2;ratioP2
42194;SDS011;27863;49.440;11.102;2023-05-03T00:02:46;6.20;;;5.13;;
42194;SDS011;27863;49.440;11.102;2023-05-03T00:05:47;5.27;;;4.83;;
42194;SDS011;27863;49.440;11.102;2023-05-03T00:08:47;5.70;;;5.30;;
42194;SDS011;27863;49.440;11.102;2023-05-03T00:11:48;8.93;;;5.70;;
42194;SDS011;27863;49.440;11.102;2023-05-03T00:14:49;5.17;;;4.67;;
42194;SDS011;27863;49.440;11.102;2023-05-03T00:17:49;4.57;;;4.23;;
42194;SDS011;27863;49.440;11.102;2023-05-03T00:20:51;5.47;;;4.97;;
42194;SDS011;27863;49.440;11.102;2023-05-03T00:23:53;5.23;;;4.73;;
42194;SDS011;27863;49.440;11.102;2023-05-03T00:26:54;5.50;;;5.00;;
42194;SDS011;27863;49.440;11.102;2023-05-03T00:29:54;5.90;;;5.40;;
42194;SDS011;27863;49.440;11.102;2023-05-03T00:32:55;6.43;;;5.70;;
42194;SDS011;27863;49.440;11.102;2023-05-03T00:35:55;5.90;;;4.53;;
42194;SDS011;27863;49.440;11.102;2023-05-03T00:38:56;5.50;;;5.10;;
42194;SDS011;27863;49.440;11.102;2023-05-03T00:41:57;6.40;;;5.80;;
42194;SDS011;27863;49.440;11.102;2023-05-03T00:44:58;5.33;;;4.77;;
42194;SDS011;27863;49.440;11.102;2023-05-03T00:47:59;6.33;;;5.73;;
42194;SDS011;27863;49.440;11.102;2023-05-03T00:50:59;5.73;;;4.80;;
42194;SDS011;27863;49.440;11.102;2023-05-03T00:54:00;5.60;;;5.10;;
42194;SDS011;27863;49.440;11.102;2023-05-03T00:57:01;6.27;;;5.43;;
42194;SDS011;27863;49.440;11.102;2023-05-03T01:00:04;7.43;;;4.73;;
42194;SDS011;27863;49.440;11.102;2023-05-03T01:03:08;5.60;;;5.10;;
42194;SDS011;27863;49.440;11.102;2023-05-03T01:09:45;11.17;;;5.40;;
42194;SDS011;27863;49.440;11.102;2023-05-03T01:12:54;6.37;;;5.17;;
42194;SDS011;27863;49.440;11.102;2023-05-03T01:19:26;6.90;;;5.50;;
42194;SDS011;27863;49.440;11.102;2023-05-03T01:25:37;7.00;;;6.17;;
42194;SDS011;27863;49.440;11.102;2023-05-03T01:28:37;7.90;;;6.83;;
42194;SDS011;27863;49.440;11.102;2023-05-03T01:31:40;6.80;;;6.20;;
42194;SDS011;27863;49.440;11.102;2023-05-03T01:34:50;6.70;;;6.07;;
42194;SDS011;27863;49.440;11.102;2023-05-03T01:37:57;6.47;;;5.93;;
42194;SDS011;27863;49.440;11.102;2023-05-03T01:40:58;7.90;;;7.07;;
42194;SDS011;27863;49.440;11.102;2023-05-03T01:44:00;8.47;;;6.70;;
42194;SDS011;27863;49.440;11.102;2023-05-03T01:47:02;6.70;;;6.00;;
42194;SDS011;27863;49.440;11.102;2023-05-03T01:50:03;9.37;;;6.40;;
42194;SDS011;27863;49.440;11.102;2023-05-03T01:53:03;7.27;;;6.57;;
42194;SDS011;27863;49.440;11.102;2023-05-03T01:56:04;6.83;;;6.13;;
42194;SDS011;27863;49.440;11.102;2023-05-03T01:59:06;7.03;;;6.30;;
42194;SDS011;27863;49.440;11.102;2023-05-03T02:02:07;7.97;;;7.17;;
42194;SDS011;27863;49.440;11.102;2023-05-03T02:05:08;13.60;;;7.67;;
42194;SDS011;27863;49.440;11.102;2023-05-03T02:08:09;8.67;;;7.27;;
42194;SDS011;27863;49.440;11.102;2023-05-03T02:11:09;6.90;;;6.30;;
42194;SDS011;27863;49.440;11.102;2023-05-03T02:14:10;7.77;;;6.97;;
42194;SDS011;27863;49.440;11.102;2023-05-03T02:17:11;7.57;;;6.80;;
42194;SDS011;27863;49.440;11.102;2023-05-03T02:20:11;8.20;;;7.40;;
42194;SDS011;27863;49.440;11.102;2023-05-03T02:23:12;12.37;;;7.67;;
42194;SDS011;27863;49.440;11.102;2023-05-03T02:26:13;8.20;;;6.93;;
42194;SDS011;27863;49.440;11.102;2023-05-03T02:29:13;9.43;;;6.70;;
42194;SDS011;27863;49.440;11.102;2023-05-03T02:32:14;7.63;;;6.90;;
42194;SDS011;27863;49.440;11.102;2023-05-03T02:35:18;8.40;;;7.70;;
42194;SDS011;27863;49.440;11.102;2023-05-03T02:38:18;10.10;;;9.20;;
42194;SDS011;27863;49.440;11.102;2023-05-03T02:41:19;6.73;;;6.13;;
42194;SDS011;27863;49.440;11.102;2023-05-03T02:44:21;9.50;;;8.57;;
42194;SDS011;27863;49.440;11.102;2023-05-03T02:47:21;8.43;;;7.63;;
42194;SDS011;27863;49.440;11.102;2023-05-03T02:50:22;8.17;;;7.37;;
42194;SDS011;27863;49.440;11.102;2023-05-03T02:53:22;9.60;;;7.57;;
42194;SDS011;27863;49.440;11.102;2023-05-03T02:56:24;10.07;;;7.83;;
42194;SDS011;27863;49.440;11.102;2023-05-03T02:59:25;11.77;;;7.67;;
42194;SDS011;27863;49.440;11.102;2023-05-03T03:02:27;10.17;;;7.60;;
42194;SDS011;27863;49.440;11.102;2023-05-03T03:05:28;9.73;;;7.57;;
42194;SDS011;27863;49.440;11.102;2023-05-03T03:08:28;9.70;;;7.73;;
42194;SDS011;27863;49.440;11.102;2023-05-03T03:11:33;9.70;;;8.17;;
42194;SDS011;27863;49.440;11.102;2023-05-03T03:14:33;10.67;;;8.20;;
42194;SDS011;27863;49.440;11.102;2023-05-03T03:17:34;9.23;;;6.97;;
42194;SDS011;27863;49.440;11.102;2023-05-03T03:20:39;8.40;;;7.60;;
42194;SDS011;27863;49.440;11.102;2023-05-03T03:23:39;8.87;;;7.97;;
42194;SDS011;27863;49.440;11.102;2023-05-03T03:26:40;9.70;;;8.30;;
42194;SDS011;27863;49.440;11.102;2023-05-03T03:29:40;8.50;;;7.60;;
42194;SDS011;27863;49.440;11.102;2023-05-03T03:32:44;9.77;;;7.47;;
42194;SDS011;27863;49.440;11.102;2023-05-03T03:35:50;8.90;;;8.10;;
42194;SDS011;27863;49.440;11.102;2023-05-03T03:38:52;11.33;;;8.73;;
42194;SDS011;27863;49.440;11.102;2023-05-03T03:41:53;14.57;;;7.77;;
42194;SDS011;27863;49.440;11.102;2023-05-03T03:44:53;8.67;;;7.97;;
42194;SDS011;27863;49.440;11.102;2023-05-03T03:47:53;8.83;;;7.93;;
42194;SDS011;27863;49.440;11.102;2023-05-03T03:50:57;8.77;;;7.87;;
42194;SDS011;27863;49.440;11.102;2023-05-03T03:54:04;16.27;;;8.70;;
42194;SDS011;27863;49.440;11.102;2023-05-03T03:57:09;9.37;;;8.10;;
42194;SDS011;27863;49.440;11.102;2023-05-03T04:00:10;9.13;;;7.97;;
42194;SDS011;27863;49.440;11.102;2023-05-03T04:03:19;8.70;;;7.83;;
42194;SDS011;27863;49.440;11.102;2023-05-03T04:06:21;9.20;;;7.90;;
42194;SDS011;27863;49.440;11.102;2023-05-03T04:09:22;15.97;;;8.97;;
42194;SDS011;27863;49.440;11.102;2023-05-03T04:12:23;8.30;;;7.50;;
42194;SDS011;27863;49.440;11.102;2023-05-03T04:15:23;9.07;;;7.70;;
42194;SDS011;27863;49.440;11.102;2023-05-03T04:18:24;9.90;;;8.90;;
42194;SDS011;27863;49.440;11.102;2023-05-03T04:21:27;11.80;;;8.93;;
42194;SDS011;27863;49.440;11.102;2023-05-03T04:24:28;8.97;;;8.03;;
42194;SDS011;27863;49.440;11.102;2023-05-03T04:27:31;13.90;;;7.97;;
42194;SDS011;27863;49.440;11.102;2023-05-03T04:30:33;9.17;;;8.13;;
42194;SDS011;27863;49.440;11.102;2023-05-03T04:33:35;11.37;;;7.93;;
42194;SDS011;27863;49.440;11.102;2023-05-03T04:36:38;8.80;;;7.90;;
42194;SDS011;27863;49.440;11.102;2023-05-03T04:39:40;10.20;;;7.70;;
42194;SDS011;27863;49.440;11.102;2023-05-03T04:42:40;8.77;;;7.87;;
42194;SDS011;27863;49.440;11.102;2023-05-03T04:45:42;9.30;;;7.77;;
42194;SDS011;27863;49.440;11.102;2023-05-03T04:48:46;9.07;;;8.00;;
42194;SDS011;27863;49.440;11.102;2023-05-03T04:51:47;7.93;;;7.13;;
42194;SDS011;27863;49.440;11.102;2023-05-03T04:54:49;8.43;;;6.87;;
42194;SDS011;27863;49.440;11.102;2023-05-03T04:57:49;7.03;;;6.33;;
42194;SDS011;27863;49.440;11.102;2023-05-03T05:00:50;7.70;;;6.37;;
42194;SDS011;27863;49.440;11.102;2023-05-03T05:03:58;6.57;;;5.93;;
42194;SDS011;27863;49.440;11.102;2023-05-03T05:07:05;6.67;;;6.00;;
42194;SDS011;27863;49.440;11.102;2023-05-03T05:10:07;6.80;;;5.97;;
42194;SDS011;27863;49.440;11.102;2023-05-03T05:13:08;8.30;;;7.47;;
42194;SDS011;27863;49.440;11.102;2023-05-03T05:16:09;9.60;;;6.70;;
42194;SDS011;27863;49.440;11.102;2023-05-03T05:19:12;7.43;;;6.30;;
42194;SDS011;27863;49.440;11.102;2023-05-03T05:22:13;10.33;;;7.27;;
42194;SDS011;27863;49.440;11.102;2023-05-03T05:25:21;9.43;;;6.70;;
42194;SDS011;27863;49.440;11.102;2023-05-03T05:28:22;7.73;;;6.60;;
42194;SDS011;27863;49.440;11.102;2023-05-03T05:31:23;10.40;;;5.80;;
42194;SDS011;27863;49.440;11.102;2023-05-03T05:34:24;8.30;;;7.35;;
42194;SDS011;27863;49.440;11.102;2023-05-03T05:37:26;7.47;;;6.80;;
42194;SDS011;27863;49.440;11.102;2023-05-03T05:40:28;10.52;;;6.32;;
42194;SDS011;27863;49.440;11.102;2023-05-03T05:43:30;5.78;;;5.20;;
42194;SDS011;27863;49.440;11.102;2023-05-03T05:46:32;7.22;;;6.55;;
42194;SDS011;27863;49.440;11.102;2023-05-03T05:49:33;7.60;;;6.53;;
42194;SDS011;27863;49.440;11.102;2023-05-03T05:52:33;8.77;;;7.88;;
42194;SDS011;27863;49.440;11.102;2023-05-03T05:55:35;6.78;;;5.88;;
42194;SDS011;27863;49.440;11.102;2023-05-03T05:58:35;7.30;;;6.40;;
42194;SDS011;27863;49.440;11.102;2023-05-03T06:01:36;7.35;;;6.03;;
42194;SDS011;27863;49.440;11.102;2023-05-03T06:04:42;7.18;;;6.45;;
42194;SDS011;27863;49.440;11.102;2023-05-03T06:07:46;22.05;;;8.57;;
42194;SDS011;27863;49.440;11.102;2023-05-03T06:10:47;13.55;;;6.65;;
42194;SDS011;27863;49.440;11.102;2023-05-03T06:13:48;11.18;;;6.78;;
42194;SDS011;27863;49.440;11.102;2023-05-03T06:16:50;8.10;;;7.25;;
42194;SDS011;27863;49.440;11.102;2023-05-03T06:19:54;8.90;;;6.93;;
42194;SDS011;27863;49.440;11.102;2023-05-03T06:22:55;7.30;;;6.65;;
42194;SDS011;27863;49.440;11.102;2023-05-03T06:25:55;8.32;;;7.47;;
42194;SDS011;27863;49.440;11.102;2023-05-03T06:28:57;7.05;;;6.45;;
42194;SDS011;27863;49.440;11.102;2023-05-03T06:32:00;16.83;;;7.28;;
42194;SDS011;27863;49.440;11.102;2023-05-03T06:35:02;8.23;;;7.15;;
42194;SDS011;27863;49.440;11.102;2023-05-03T06:38:03;8.07;;;7.37;;
42194;SDS011;27863;49.440;11.102;2023-05-03T06:41:03;9.93;;;7.07;;
42194;SDS011;27863;49.440;11.102;2023-05-03T06:44:04;9.03;;;8.23;;
42194;SDS011;27863;49.440;11.102;2023-05-03T06:47:06;7.90;;;7.07;;
42194;SDS011;27863;49.440;11.102;2023-05-03T06:50:07;21.03;;;8.13;;
42194;SDS011;27863;49.440;11.102;2023-05-03T06:53:08;7.10;;;6.50;;
42194;SDS011;27863;49.440;11.102;2023-05-03T06:56:08;6.77;;;6.07;;
42194;SDS011;27863;49.440;11.102;2023-05-03T06:59:09;7.45;;;6.68;;
42194;SDS011;27863;49.440;11.102;2023-05-03T07:02:09;9.55;;;6.68;;
42194;SDS011;27863;49.440;11.102;2023-05-03T07:05:10;14.85;;;7.13;;
42194;SDS011;27863;49.440;11.102;2023-05-03T07:08:11;11.20;;;7.35;;
42194;SDS011;27863;49.440;11.102;2023-05-03T07:11:13;9.50;;;6.22;;
42194;SDS011;27863;49.440;11.102;2023-05-03T07:14:14;11.68;;;6.63;;
42194;SDS011;27863;49.440;11.102;2023-05-03T07:17:15;13.68;;;6.65;;
42194;SDS011;27863;49.440;11.102;2023-05-03T07:20:15;7.82;;;6.28;;
42194;SDS011;27863;49.440;11.102;2023-05-03T07:23:16;6.22;;;5.50;;
42194;SDS011;27863;49.440;11.102;2023-05-03T07:26:16;6.95;;;4.95;;
42194;SDS011;27863;49.440;11.102;2023-05-03T07:29:17;5.78;;;5.38;;
42194;SDS011;27863;49.440;11.102;2023-05-03T07:32:18;9.45;;;6.45;;
42194;SDS011;27863;49.440;11.102;2023-05-03T07:35:18;7.25;;;5.78;;
42194;SDS011;27863;49.440;11.102;2023-05-03T07:38:19;10.75;;;5.70;;
42194;SDS011;27863;49.440;11.102;2023-05-03T07:41:19;6.57;;;5.97;;
42194;SDS011;27863;49.440;11.102;2023-05-03T07:44:20;6.03;;;5.50;;
42194;SDS011;27863;49.440;11.102;2023-05-03T07:47:21;5.95;;;5.45;;
42194;SDS011;27863;49.440;11.102;2023-05-03T07:50:22;6.18;;;5.57;;
42194;SDS011;27863;49.440;11.102;2023-05-03T07:53:22;6.40;;;5.80;;
42194;SDS011;27863;49.440;11.102;2023-05-03T07:56:23;5.72;;;5.22;;
42194;SDS011;27863;49.440;11.102;2023-05-03T07:59:24;6.47;;;5.40;;
42194;SDS011;27863;49.440;11.102;2023-05-03T08:02:25;7.53;;;5.95;;
42194;SDS011;27863;49.440;11.102;2023-05-03T08:05:27;11.13;;;6.95;;
42194;SDS011;27863;49.440;11.102;2023-05-03T08:08:29;5.72;;;5.22;;
42194;SDS011;27863;49.440;11.102;2023-05-03T08:11:31;10.13;;;6.93;;
42194;SDS011;27863;49.440;11.102;2023-05-03T08:14:32;12.30;;;5.22;;
42194;SDS011;27863;49.440;11.102;2023-05-03T08:17:43;9.15;;;6.07;;
42194;SDS011;27863;49.440;11.102;2023-05-03T08:20:45;10.48;;;5.22;;
42194;SDS011;27863;49.440;11.102;2023-05-03T08:23:47;47.85;;;7.28;;
42194;SDS011;27863;49.440;11.102;2023-05-03T08:26:47;18.65;;;6.50;;
42194;SDS011;27863;49.440;11.102;2023-05-03T08:29:49;14.02;;;5.55;;
42194;SDS011;27863;49.440;11.102;2023-05-03T08:32:50;21.58;;;6.30;;
42194;SDS011;27863;49.440;11.102;2023-05-03T08:35:50;5.32;;;4.82;;
42194;SDS011;27863;49.440;11.102;2023-05-03T08:38:51;7.22;;;4.90;;
42194;SDS011;27863;49.440;11.102;2023-05-03T08:41:52;6.28;;;4.43;;
42194;SDS011;27863;49.440;11.102;2023-05-03T08:44:53;14.63;;;5.93;;
42194;SDS011;27863;49.440;11.102;2023-05-03T08:47:54;18.60;;;7.38;;
42194;SDS011;27863;49.440;11.102;2023-05-03T08:50:54;7.88;;;4.93;;
42194;SDS011;27863;49.440;11.102;2023-05-03T08:53:56;10.77;;;5.57;;
42194;SDS011;27863;49.440;11.102;2023-05-03T08:56:58;4.57;;;4.10;;
42194;SDS011;27863;49.440;11.102;2023-05-03T08:59:58;4.38;;;3.95;;
42194;SDS011;27863;49.440;11.102;2023-05-03T09:03:00;4.55;;;3.50;;
42194;SDS011;27863;49.440;11.102;2023-05-03T09:06:01;8.63;;;5.55;;
42194;SDS011;27863;49.440;11.102;2023-05-03T09:09:03;39.42;;;8.75;;
42194;SDS011;27863;49.440;11.102;2023-05-03T09:12:06;5.32;;;4.45;;
42194;SDS011;27863;49.440;11.102;2023-05-03T09:15:06;4.15;;;3.85;;
42194;SDS011;27863;49.440;11.102;2023-05-03T09:21:10;3.88;;;2.92;;
42194;SDS011;27863;49.440;11.102;2023-05-03T09:24:19;4.05;;;3.65;;
42194;SDS011;27863;49.440;11.102;2023-05-03T09:27:20;4.80;;;3.53;;
42194;SDS011;27863;49.440;11.102;2023-05-03T09:30:22;4.85;;;3.60;;
42194;SDS011;27863;49.440;11.102;2023-05-03T09:33:32;9.82;;;4.22;;
42194;SDS011;27863;49.440;11.102;2023-05-03T09:36:45;4.85;;;3.08;;
42194;SDS011;27863;49.440;11.102;2023-05-03T09:39:46;5.82;;;3.80;;
42194;SDS011;27863;49.440;11.102;2023-05-03T09:46:08;4.45;;;4.07;;
42194;SDS011;27863;49.440;11.102;2023-05-03T09:49:10;4.65;;;3.78;;
42194;SDS011;27863;49.440;11.102;2023-05-03T09:52:10;5.68;;;4.00;;
42194;SDS011;27863;49.440;11.102;2023-05-03T09:55:11;4.88;;;4.18;;
42194;SDS011;27863;49.440;11.102;2023-05-03T09:58:11;4.35;;;4.03;;
42194;SDS011;27863;49.440;11.102;2023-05-03T10:01:13;5.18;;;4.32;;
42194;SDS011;27863;49.440;11.102;2023-05-03T10:04:16;4.13;;;3.72;;
42194;SDS011;27863;49.440;11.102;2023-05-03T10:07:18;3.65;;;3.35;;
42194;SDS011;27863;49.440;11.102;2023-05-03T10:10:20;3.30;;;3.10;;
42194;SDS011;27863;49.440;11.102;2023-05-03T10:13:21;8.35;;;4.22;;
42194;SDS011;27863;49.440;11.102;2023-05-03T10:16:24;6.13;;;3.67;;
42194;SDS011;27863;49.440;11.102;2023-05-03T10:19:38;4.13;;;3.33;;
42194;SDS011;27863;49.440;11.102;2023-05-03T10:26:14;11.07;;;4.50;;
42194;SDS011;27863;49.440;11.102;2023-05-03T10:32:34;3.53;;;3.22;;
42194;SDS011;27863;49.440;11.102;2023-05-03T10:35:39;3.92;;;3.40;;
42194;SDS011;27863;49.440;11.102;2023-05-03T10:38:45;4.18;;;3.60;;
42194;SDS011;27863;49.440;11.102;2023-05-03T10:42:00;4.65;;;4.25;;
42194;SDS011;27863;49.440;11.102;2023-05-03T10:45:03;3.30;;;3.00;;
42194;SDS011;27863;49.440;11.102;2023-05-03T10:54:42;5.10;;;3.03;;
42194;SDS011;27863;49.440;11.102;2023-05-03T10:57:43;12.00;;;5.55;;
42194;SDS011;27863;49.440;11.102;2023-05-03T11:00:45;18.33;;;4.28;;
42194;SDS011;27863;49.440;11.102;2023-05-03T11:04:29;4.90;;;3.40;;
42194;SDS011;27863;49.440;11.102;2023-05-03T11:07:18;3.88;;;2.53;;
42194;SDS011;27863;49.440;11.102;2023-05-03T11:10:21;6.10;;;3.47;;
42194;SDS011;27863;49.440;11.102;2023-05-03T11:13:22;2.92;;;2.72;;
42194;SDS011;27863;49.440;11.102;2023-05-03T11:16:22;4.00;;;2.88;;
42194;SDS011;27863;49.440;11.102;2023-05-03T11:19:24;3.25;;;2.53;;
42194;SDS011;27863;49.440;11.102;2023-05-03T11:22:25;2.70;;;2.50;;
42194;SDS011;27863;49.440;11.102;2023-05-03T11:25:26;3.45;;;2.85;;
42194;SDS011;27863;49.440;11.102;2023-05-03T11:28:26;4.78;;;3.40;;
42194;SDS011;27863;49.440;11.102;2023-05-03T11:31:27;4.28;;;3.88;;
42194;SDS011;27863;49.440;11.102;2023-05-03T11:34:27;4.57;;;3.30;;
42194;SDS011;27863;49.440;11.102;2023-05-03T11:37:28;39.42;;;5.97;;
42194;SDS011;27863;49.440;11.102;2023-05-03T11:40:29;11.20;;;4.95;;
42194;SDS011;27863;49.440;11.102;2023-05-03T11:43:31;33.97;;;6.50;;
42194;SDS011;27863;49.440;11.102;2023-05-03T11:46:34;6.57;;;2.83;;
42194;SDS011;27863;49.440;11.102;2023-05-03T11:49:36;6.72;;;3.45;;
42194;SDS011;27863;49.440;11.102;2023-05-03T11:52:37;5.78;;;3.10;;
42194;SDS011;27863;49.440;11.102;2023-05-03T11:55:40;12.23;;;4.15;;
42194;SDS011;27863;49.440;11.102;2023-05-03T11:59:14;8.70;;;3.13;;
42194;SDS011;27863;49.440;11.102;2023-05-03T12:02:09;2.22;;;2.03;;
42194;SDS011;27863;49.440;11.102;2023-05-03T12:05:13;3.40;;;2.10;;
42194;SDS011;27863;49.440;11.102;2023-05-03T12:08:13;2.90;;;2.60;;
42194;SDS011;27863;49.440;11.102;2023-05-03T12:11:15;2.58;;;2.35;;
42194;SDS011;27863;49.440;11.102;2023-05-03T12:14:16;8.95;;;3.15;;
42194;SDS011;27863;49.440;11.102;2023-05-03T12:17:31;2.60;;;2.30;;
42194;SDS011;27863;49.440;11.102;2023-05-03T12:20:33;4.60;;;2.80;;
42194;SDS011;27863;49.440;11.102;2023-05-03T12:23:35;20.45;;;4.50;;
42194;SDS011;27863;49.440;11.102;2023-05-03T12:26:36;12.73;;;4.78;;
42194;SDS011;27863;49.440;11.102;2023-05-03T12:29:36;3.95;;;2.78;;
42194;SDS011;27863;49.440;11.102;2023-05-03T12:32:38;8.60;;;2.50;;
42194;SDS011;27863;49.440;11.102;2023-05-03T12:35:38;9.23;;;2.65;;
42194;SDS011;27863;49.440;11.102;2023-05-03T12:38:39;7.72;;;2.72;;
42194;SDS011;27863;49.440;11.102;2023-05-03T12:41:39;3.10;;;2.40;;
42194;SDS011;27863;49.440;11.102;2023-05-03T12:44:40;5.65;;;2.55;;
42194;SDS011;27863;49.440;11.102;2023-05-03T12:47:41;7.47;;;5.95;;
42194;SDS011;27863;49.440;11.102;2023-05-03T12:50:42;3.90;;;2.55;;
42194;SDS011;27863;49.440;11.102;2023-05-03T12:53:42;2.65;;;2.05;;
42194;SDS011;27863;49.440;11.102;2023-05-03T12:56:42;2.35;;;1.92;;
42194;SDS011;27863;49.440;11.102;2023-05-03T12:59:43;2.28;;;1.77;;
42194;SDS011;27863;49.440;11.102;2023-05-03T13:02:44;2.30;;;1.75;;
42194;SDS011;27863;49.440;11.102;2023-05-03T13:05:44;3.75;;;2.05;;
42194;SDS011;27863;49.440;11.102;2023-05-03T13:08:45;2.00;;;1.90;;
42194;SDS011;27863;49.440;11.102;2023-05-03T13:11:46;2.15;;;2.00;;
42194;SDS011;27863;49.440;11.102;2023-05-03T13:14:49;4.78;;;2.25;;
42194;SDS011;27863;49.440;11.102;2023-05-03T13:17:50;3.38;;;2.53;;
42194;SDS011;27863;49.440;11.102;2023-05-03T13:20:51;2.42;;;1.80;;
42194;SDS011;27863;49.440;11.102;2023-05-03T13:23:52;3.53;;;2.28;;
42194;SDS011;27863;49.440;11.102;2023-05-03T13:26:52;3.95;;;2.33;;
42194;SDS011;27863;49.440;11.102;2023-05-03T13:29:54;2.92;;;1.95;;
42194;SDS011;27863;49.440;11.102;2023-05-03T13:32:55;2.50;;;1.73;;
42194;SDS011;27863;49.440;11.102;2023-05-03T13:35:56;8.00;;;2.10;;
42194;SDS011;27863;49.440;11.102;2023-05-03T13:38:57;4.00;;;2.30;;
42194;SDS011;27863;49.440;11.102;2023-05-03T13:42:00;6.10;;;2.15;;
42194;SDS011;27863;49.440;11.102;2023-05-03T13:45:02;4.63;;;2.35;;
42194;SDS011;27863;49.440;11.102;2023-05-03T13:48:03;41.22;;;4.55;;
42194;SDS011;27863;49.440;11.102;2023-05-03T13:51:06;7.40;;;2.40;;
42194;SDS011;27863;49.440;11.102;2023-05-03T13:54:08;13.57;;;2.65;;
42194;SDS011;27863;49.440;11.102;2023-05-03T13:57:09;5.00;;;2.25;;
42194;SDS011;27863;49.440;11.102;2023-05-03T14:00:09;2.95;;;1.55;;
42194;SDS011;27863;49.440;11.102;2023-05-03T14:03:11;2.50;;;1.30;;
42194;SDS011;27863;49.440;11.102;2023-05-03T14:06:11;2.65;;;1.65;;
42194;SDS011;27863;49.440;11.102;2023-05-03T14:09:12;1.63;;;1.52;;
42194;SDS011;27863;49.440;11.102;2023-05-03T14:12:13;2.33;;;1.80;;
42194;SDS011;27863;49.440;11.102;2023-05-03T14:15:13;1.60;;;1.50;;
42194;SDS011;27863;49.440;11.102;2023-05-03T14:18:14;2.70;;;2.00;;
42194;SDS011;27863;49.440;11.102;2023-05-03T14:21:16;4.45;;;1.90;;
42194;SDS011;27863;49.440;11.102;2023-05-03T14:24:17;4.75;;;1.70;;
42194;SDS011;27863;49.440;11.102;2023-05-03T14:27:18;2.72;;;1.80;;
42194;SDS011;27863;49.440;11.102;2023-05-03T14:30:21;2.83;;;2.28;;
42194;SDS011;27863;49.440;11.102;2023-05-03T14:33:22;1.88;;;1.77;;
42194;SDS011;27863;49.440;11.102;2023-05-03T14:36:22;1.77;;;1.65;;
42194;SDS011;27863;49.440;11.102;2023-05-03T14:39:23;1.65;;;1.23;;
42194;SDS011;27863;49.440;11.102;2023-05-03T14:42:25;2.85;;;2.30;;
42194;SDS011;27863;49.440;11.102;2023-05-03T14:45:29;1.92;;;1.73;;
42194;SDS011;27863;49.440;11.102;2023-05-03T14:48:29;1.67;;;1.33;;
42194;SDS011;27863;49.440;11.102;2023-05-03T14:51:30;1.80;;;1.70;;
42194;SDS011;27863;49.440;11.102;2023-05-03T14:54:33;2.95;;;1.55;;
42194;SDS011;27863;49.440;11.102;2023-05-03T14:57:34;3.78;;;1.60;;
42194;SDS011;27863;49.440;11.102;2023-05-03T15:00:38;5.25;;;1.40;;
42194;SDS011;27863;49.440;11.102;2023-05-03T15:03:39;3.00;;;2.42;;
42194;SDS011;27863;49.440;11.102;2023-05-03T15:06:42;2.25;;;1.50;;
42194;SDS011;27863;49.440;11.102;2023-05-03T15:09:42;2.17;;;1.65;;
42194;SDS011;27863;49.440;11.102;2023-05-03T15:12:43;1.65;;;1.52;;
42194;SDS011;27863;49.440;11.102;2023-05-03T15:15:44;1.92;;;1.23;;
42194;SDS011;27863;49.440;11.102;2023-05-03T15:18:45;1.60;;;1.50;;
42194;SDS011;27863;49.440;11.102;2023-05-03T15:21:48;20.92;;;18.90;;
42194;SDS011;27863;49.440;11.102;2023-05-03T15:24:49;2.50;;;1.90;;
42194;SDS011;27863;49.440;11.102;2023-05-03T15:27:50;2.33;;;1.52;;
42194;SDS011;27863;49.440;11.102;2023-05-03T15:30:50;1.95;;;1.73;;
42194;SDS011;27863;49.440;11.102;2023-05-03T15:33:51;1.38;;;1.20;;
42194;SDS011;27863;49.440;11.102;2023-05-03T15:36:52;1.30;;;1.00;;
42194;SDS011;27863;49.440;11.102;2023-05-03T15:39:52;2.55;;;1.67;;
42194;SDS011;27863;49.440;11.102;2023-05-03T15:42:53;1.88;;;1.17;;
42194;SDS011;27863;49.440;11.102;2023-05-03T15:45:54;1.10;;;1.00;;
42194;SDS011;27863;49.440;11.102;2023-05-03T15:48:55;2.65;;;1.40;;
42194;SDS011;27863;49.440;11.102;2023-05-03T15:51:55;3.50;;;1.40;;
42194;SDS011;27863;49.440;11.102;2023-05-03T15:54:56;1.77;;;1.40;;
42194;SDS011;27863;49.440;11.102;2023-05-03T15:57:57;1.50;;;1.40;;
42194;SDS011;27863;49.440;11.102;2023-05-03T16:00:57;2.38;;;1.58;;
42194;SDS011;27863;49.440;11.102;2023-05-03T16:03:58;1.00;;;0.90;;
42194;SDS011;27863;49.440;11.102;2023-05-03T16:06:58;1.60;;;1.20;;
42194;SDS011;27863;49.440;11.102;2023-05-03T16:10:00;5.72;;;4.70;;
42194;SDS011;27863;49.440;11.102;2023-05-03T16:13:01;3.40;;;2.40;;
42194;SDS011;27863;49.440;11.102;2023-05-03T16:16:02;2.40;;;1.80;;
42194;SDS011;27863;49.440;11.102;2023-05-03T16:19:06;2.85;;;1.85;;
42194;SDS011;27863;49.440;11.102;2023-05-03T16:22:07;2.30;;;1.70;;
42194;SDS011;27863;49.440;11.102;2023-05-03T16:25:08;39.85;;;17.35;;
42194;SDS011;27863;49.440;11.102;2023-05-03T16:28:10;19.65;;;14.00;;
42194;SDS011;27863;49.440;11.102;2023-05-03T16:31:11;8.85;;;7.95;;
42194;SDS011;27863;49.440;11.102;2023-05-03T16:34:12;4.97;;;4.38;;
42194;SDS011;27863;49.440;11.102;2023-05-03T16:37:13;1.60;;;1.40;;
42194;SDS011;27863;49.440;11.102;2023-05-03T16:40:15;1.50;;;1.40;;
42194;SDS011;27863;49.440;11.102;2023-05-03T16:43:15;1.85;;;1.40;;
42194;SDS011;27863;49.440;11.102;2023-05-03T16:46:17;4.35;;;3.90;;
42194;SDS011;27863;49.440;11.102;2023-05-03T16:49:17;2.00;;;1.80;;
42194;SDS011;27863;49.440;11.102;2023-05-03T16:52:18;2.00;;;1.90;;
42194;SDS011;27863;49.440;11.102;2023-05-03T16:55:21;1.50;;;1.40;;
42194;SDS011;27863;49.440;11.102;2023-05-03T16:58:22;1.90;;;1.67;;
42194;SDS011;27863;49.440;11.102;2023-05-03T17:01:23;1.70;;;1.58;;
42194;SDS011;27863;49.440;11.102;2023-05-03T17:04:25;7.40;;;1.55;;
42194;SDS011;27863;49.440;11.102;2023-05-03T17:07:27;2.03;;;1.90;;
42194;SDS011;27863;49.440;11.102;2023-05-03T17:10:28;1.80;;;1.45;;
42194;SDS011;27863;49.440;11.102;2023-05-03T17:13:30;1.23;;;1.13;;
42194;SDS011;27863;49.440;11.102;2023-05-03T17:16:31;3.33;;;1.30;;
42194;SDS011;27863;49.440;11.102;2023-05-03T17:19:31;2.65;;;1.20;;
42194;SDS011;27863;49.440;11.102;2023-05-03T17:22:32;3.00;;;1.58;;
42194;SDS011;27863;49.440;11.102;2023-05-03T17:25:32;2.65;;;1.75;;
42194;SDS011;27863;49.440;11.102;2023-05-03T17:28:33;1.40;;;1.30;;
42194;SDS011;27863;49.440;11.102;2023-05-03T17:31:34;1.65;;;1.27;;
42194;SDS011;27863;49.440;11.102;2023-05-03T17:34:34;1.35;;;1.25;;
42194;SDS011;27863;49.440;11.102;2023-05-03T17:37:36;1.42;;;1.23;;
42194;SDS011;27863;49.440;11.102;2023-05-03T17:40:36;1.88;;;1.60;;
42194;SDS011;27863;49.440;11.102;2023-05-03T17:43:41;1.70;;;1.50;;
42194;SDS011;27863;49.440;11.102;2023-05-03T17:46:41;2.22;;;1.27;;
42194;SDS011;27863;49.440;11.102;2023-05-03T17:49:42;4.45;;;1.40;;
42194;SDS011;27863;49.440;11.102;2023-05-03T17:52:44;1.58;;;1.30;;
42194;SDS011;27863;49.440;11.102;2023-05-03T17:55:44;2.97;;;1.45;;
42194;SDS011;27863;49.440;11.102;2023-05-03T17:58:45;3.15;;;1.33;;
42194;SDS011;27863;49.440;11.102;2023-05-03T18:01:46;1.67;;;1.58;;
42194;SDS011;27863;49.440;11.102;2023-05-03T18:04:47;2.45;;;1.60;;
42194;SDS011;27863;49.440;11.102;2023-05-03T18:07:48;2.25;;;1.98;;
42194;SDS011;27863;49.440;11.102;2023-05-03T18:10:49;1.58;;;1.48;;
42194;SDS011;27863;49.440;11.102;2023-05-03T18:13:51;1.20;;;1.10;;
42194;SDS011;27863;49.440;11.102;2023-05-03T18:16:54;1.17;;;1.08;;
42194;SDS011;27863;49.440;11.102;2023-05-03T18:19:56;3.28;;;1.80;;
42194;SDS011;27863;49.440;11.102;2023-05-03T18:22:56;2.22;;;1.40;;
42194;SDS011;27863;49.440;11.102;2023-05-03T18:25:57;2.55;;;1.52;;
42194;SDS011;27863;49.440;11.102;2023-05-03T18:28:58;1.98;;;1.73;;